createdAt,value
2018-09-20T20:45:34.329Z,16.14
2018-09-20T20:48:02.975Z,16.12
2018-09-20T20:50:31.735Z,16.07
2018-09-20T20:53:14.069Z,16.04
2018-09-20T20:55:48.771Z,15.99
2018-09-20T20:58:17.451Z,15.98
2018-09-20T21:00:46.065Z,16.03
2018-09-20T21:03:14.677Z,16.04
2018-09-20T21:05:43.279Z,15.98
2018-09-20T21:08:11.937Z,15.91
2018-09-20T21:10:40.525Z,15.89
2018-09-20T21:13:09.181Z,15.90
2018-09-20T21:15:37.855Z,15.94
2018-09-20T21:18:06.828Z,15.96
2018-09-20T21:20:35.455Z,15.94
2018-09-20T21:23:04.057Z,15.89
2018-09-20T21:25:32.677Z,15.89
2018-09-20T21:28:01.266Z,16.01
2018-09-20T21:30:29.904Z,16.18
2018-09-20T21:32:58.523Z,16.30
2018-09-20T21:35:27.162Z,16.33
2018-09-20T21:37:55.763Z,16.35
2018-09-20T21:40:24.404Z,16.38
2018-09-20T21:42:52.997Z,16.39
2018-09-20T21:45:21.606Z,16.35
2018-09-20T21:47:50.192Z,16.40
2018-09-20T21:50:18.822Z,16.48
2018-09-20T21:52:47.479Z,16.55
2018-09-20T21:55:16.115Z,16.61
2018-09-20T21:57:44.739Z,16.65
2018-09-20T22:00:13.428Z,16.66
2018-09-20T22:02:47.163Z,16.64
2018-09-20T22:05:15.763Z,16.48
2018-09-20T22:07:44.347Z,16.33
2018-09-20T22:10:13.017Z,16.22
2018-09-20T22:12:41.618Z,16.13
2018-09-20T22:15:17.407Z,16.10
2018-09-20T22:17:46.049Z,16.10
2018-09-20T22:20:14.738Z,16.12
2018-09-20T22:22:43.419Z,16.09
2018-09-20T22:25:12.071Z,16.04
2018-09-20T22:27:40.933Z,15.95
2018-09-20T22:30:09.720Z,15.84
2018-09-20T22:32:38.401Z,15.78
2018-09-20T22:35:07.224Z,15.82
2018-09-20T22:37:35.995Z,15.86
2018-09-20T22:40:04.983Z,15.85
2018-09-20T22:42:33.730Z,15.78
2018-09-20T22:45:03.180Z,15.77
2018-09-20T22:47:32.078Z,15.75
2018-09-20T22:50:00.733Z,15.63
2018-09-20T22:52:29.423Z,15.42
2018-09-20T22:54:58.039Z,15.49
2018-09-20T22:57:26.645Z,15.57
2018-09-20T22:59:55.290Z,15.70
2018-09-20T23:02:23.882Z,15.77
2018-09-20T23:04:52.532Z,15.90
2018-09-20T23:07:21.350Z,16.06
2018-09-20T23:09:49.991Z,16.22
2018-09-20T23:12:18.589Z,16.41
2018-09-20T23:14:47.289Z,16.52
2018-09-20T23:17:15.913Z,16.57
2018-09-20T23:19:44.560Z,16.68
2018-09-20T23:22:13.232Z,16.71
2018-09-20T23:24:41.899Z,16.77
2018-09-20T23:27:10.505Z,16.90
2018-09-20T23:29:39.118Z,17.05
2018-09-20T23:32:07.766Z,17.22
2018-09-20T23:34:36.479Z,17.28
2018-09-20T23:37:05.133Z,17.28
2018-09-20T23:39:33.804Z,17.29
2018-09-20T23:42:02.469Z,17.32
2018-09-20T23:44:31.094Z,17.30
2018-09-20T23:46:59.718Z,17.32
2018-09-20T23:49:28.444Z,17.36
2018-09-20T23:51:57.080Z,17.41
2018-09-20T23:54:25.696Z,17.42
2018-09-20T23:56:54.503Z,17.39
2018-09-20T23:59:23.098Z,17.39
